createdAt,value
2023-04-19T00:10:08.882Z,12.20
2023-04-19T00:20:33.000Z,12.20
2023-04-19T00:30:54.352Z,12.20
2023-04-19T00:41:17.581Z,12.20
2023-04-19T00:51:39.719Z,12.20
2023-04-19T01:02:02.636Z,12.20
2023-04-19T01:12:24.145Z,12.00
2023-04-19T01:22:46.826Z,11.90
2023-04-19T01:33:08.496Z,11.60
2023-04-19T01:43:32.219Z,11.30
2023-04-19T01:53:54.546Z,11.20
2023-04-19T02:04:21.138Z,11.00
2023-04-19T02:14:42.541Z,10.90
2023-04-19T02:25:06.846Z,10.70
2023-04-19T02:35:28.791Z,10.50
2023-04-19T02:45:54.522Z,10.40
2023-04-19T02:56:16.396Z,10.30
2023-04-19T03:06:39.817Z,10.30
2023-04-19T03:17:01.482Z,10.20
2023-04-19T03:27:24.874Z,10.00
2023-04-19T03:37:54.565Z,9.80
2023-04-19T03:48:17.669Z,9.90
2023-04-19T03:58:41.097Z,9.60
2023-04-19T04:09:06.649Z,9.60
2023-04-19T04:19:28.423Z,10.00
2023-04-19T04:29:51.763Z,10.50
2023-04-19T04:40:15.748Z,10.30
2023-04-19T04:50:39.317Z,10.30
2023-04-19T05:01:01.164Z,10.60
2023-04-19T05:11:25.932Z,10.90
2023-04-19T05:21:49.227Z,11.00
2023-04-19T05:32:13.005Z,11.20
2023-04-19T05:42:42.631Z,11.60
2023-04-19T05:53:06.824Z,11.60
2023-04-19T06:03:31.987Z,11.80
2023-04-19T06:13:56.586Z,12.10
2023-04-19T06:24:18.837Z,12.60
2023-04-19T06:34:41.807Z,12.70
2023-04-19T06:45:03.647Z,12.70
2023-04-19T06:55:27.684Z,13.20
2023-04-19T07:05:52.237Z,13.90
2023-04-19T07:16:15.585Z,14.30
2023-04-19T07:26:37.157Z,14.40
2023-04-19T07:37:00.442Z,14.90
2023-04-19T07:47:22.178Z,15.00
2023-04-19T07:57:48.005Z,15.70
2023-04-19T08:08:09.612Z,15.60
2023-04-19T08:18:32.924Z,15.50
2023-04-19T08:28:55.874Z,15.90
2023-04-19T08:39:31.870Z,16.00
2023-04-19T08:50:09.121Z,15.90
2023-04-19T09:00:41.260Z,16.90
2023-04-19T09:11:03.181Z,17.10
2023-04-19T09:21:33.803Z,17.20
2023-04-19T09:31:59.967Z,16.60
2023-04-19T09:42:42.306Z,17.00
2023-04-19T09:53:04.882Z,17.10
2023-04-19T10:03:31.115Z,16.70
2023-04-19T10:13:56.017Z,16.60
2023-04-19T10:24:21.335Z,16.80
2023-04-19T10:34:44.167Z,17.40
2023-04-19T10:45:36.418Z,17.40
2023-04-19T10:55:57.770Z,17.00
2023-04-19T11:06:27.031Z,17.20
2023-04-19T11:16:48.568Z,17.40
2023-04-19T11:27:11.832Z,17.80
2023-04-19T11:37:35.815Z,18.00
2023-04-19T11:48:00.930Z,17.30
2023-04-19T11:58:30.056Z,17.10
2023-04-19T12:08:53.974Z,17.40
2023-04-19T12:19:17.735Z,17.50
2023-04-19T12:29:41.465Z,17.40
2023-04-19T12:40:05.291Z,17.10
2023-04-19T12:50:28.050Z,17.60
2023-04-19T13:00:50.460Z,16.90
2023-04-19T13:11:13.605Z,16.90
2023-04-19T13:21:35.640Z,17.20
2023-04-19T13:31:59.834Z,17.20
2023-04-19T13:42:23.240Z,17.20
2023-04-19T13:52:46.256Z,16.90
2023-04-19T14:03:08.369Z,16.20
2023-04-19T14:13:31.807Z,15.30
2023-04-19T14:23:53.245Z,14.80
2023-04-19T14:34:16.893Z,15.40
2023-04-19T14:44:38.670Z,15.60
2023-04-19T14:55:01.302Z,15.40
2023-04-19T15:05:24.640Z,15.50
2023-04-19T15:15:49.118Z,14.70
2023-04-19T15:26:11.072Z,14.20
2023-04-19T15:36:33.741Z,12.70
2023-04-19T15:46:56.167Z,11.80
2023-04-19T15:57:19.347Z,11.30
2023-04-19T16:07:40.816Z,11.30
2023-04-19T16:18:04.018Z,11.10
2023-04-19T16:28:25.959Z,11.00
2023-04-19T16:38:48.535Z,10.90
2023-04-19T16:49:09.789Z,11.00
2023-04-19T16:59:32.405Z,11.10
2023-04-19T17:09:54.186Z,11.20
2023-04-19T17:20:18.204Z,11.10
2023-04-19T17:30:39.801Z,11.20
2023-04-19T17:41:03.510Z,11.30
2023-04-19T17:51:25.226Z,11.30
2023-04-19T18:01:47.865Z,11.30
2023-04-19T18:12:09.668Z,11.30
2023-04-19T18:22:33.844Z,11.40
2023-04-19T18:32:55.549Z,11.50
2023-04-19T18:43:20.700Z,11.50
2023-04-19T18:53:43.776Z,11.50
2023-04-19T19:04:31.771Z,11.60
2023-04-19T19:14:49.354Z,11.60
2023-04-19T19:25:13.285Z,11.70
2023-04-19T19:35:34.663Z,11.80
2023-04-19T19:45:57.775Z,11.90
2023-04-19T19:56:22.756Z,12.00
2023-04-19T20:17:12.446Z,12.00
2023-04-19T20:27:35.838Z,12.00
2023-04-19T20:38:02.433Z,12.00
2023-04-19T20:48:26.043Z,12.00
2023-04-19T20:58:47.430Z,12.00
2023-04-19T21:09:11.051Z,12.00
2023-04-19T21:19:32.480Z,12.00
2023-04-19T21:29:55.241Z,12.00
2023-04-19T21:40:16.652Z,12.00
2023-04-19T21:50:39.849Z,12.10
2023-04-19T22:01:01.540Z,12.00
2023-04-19T22:11:25.655Z,12.10
2023-04-19T22:21:47.648Z,12.00
2023-04-19T22:32:10.328Z,12.10
2023-04-19T22:42:32.884Z,12.00
2023-04-19T22:52:55.591Z,12.10
2023-04-19T23:03:17.616Z,12.20
2023-04-19T23:13:41.696Z,12.10
2023-04-19T23:24:03.271Z,12.20
2023-04-19T23:34:26.149Z,12.20
2023-04-19T23:44:47.640Z,12.20
2023-04-19T23:55:11.009Z,12.10
